Time;durP1;ratioP1;P1;durP2;ratioP2;P2;SDS_P1;SDS_P2;PMS_P1;PMS_P2;Temp;Humidity;BMP_temperature;BMP_pressure;BME280_temperature;BME280_humidity;BME280_pressure;Samples;Min_cycle;Max_cycle;Signal;HPM_P1;HPM_P2
2021/01/07 00:02:14;;;;;;;16.50;7.47;;;6.00;73.20;;;;;;5007346;28;20557;-76
2021/01/07 00:04:40;;;;;;;11.20;5.53;;;6.00;73.50;;;;;;5013818;28;20042;-77
2021/01/07 00:07:05;;;;;;;9.17;4.77;;;5.90;73.70;;;;;;5003796;28;20364;-78
2021/01/07 00:09:31;;;;;;;11.40;5.40;;;5.90;73.80;;;;;;5015775;28;20090;-78
2021/01/07 00:11:56;;;;;;;10.87;5.37;;;5.90;73.80;;;;;;5008972;28;20091;-78
2021/01/07 00:14:22;;;;;;;11.23;5.17;;;5.90;73.90;;;;;;4991855;28;20041;-78
2021/01/07 00:16:49;;;;;;;12.10;6.40;;;5.90;74.00;;;;;;5012486;28;20053;-77
2021/01/07 00:19:15;;;;;;;10.00;4.70;;;5.80;74.10;;;;;;5002353;28;20022;-77
2021/01/07 00:21:41;;;;;;;10.30;5.00;;;5.80;74.20;;;;;;5014037;28;20036;-77
2021/01/07 00:24:07;;;;;;;11.23;5.87;;;5.80;74.20;;;;;;4993220;28;20132;-77
2021/01/07 00:26:33;;;;;;;11.43;5.63;;;5.80;74.20;;;;;;4987553;28;20691;-77
2021/01/07 00:28:59;;;;;;;12.80;5.60;;;5.80;74.10;;;;;;5007274;28;20112;-77
2021/01/07 00:31:25;;;;;;;10.33;5.33;;;5.80;74.00;;;;;;5006082;28;20045;-77
2021/01/07 00:33:50;;;;;;;10.73;5.70;;;5.80;74.00;;;;;;5008591;28;20519;-76
2021/01/07 00:36:17;;;;;;;11.37;5.80;;;5.80;74.10;;;;;;5011577;28;20058;-77
2021/01/07 00:38:43;;;;;;;10.23;5.40;;;5.80;74.20;;;;;;5011127;28;20109;-77
2021/01/07 00:41:10;;;;;;;9.10;4.97;;;5.80;74.20;;;;;;5009436;28;20173;-77
2021/01/07 00:43:35;;;;;;;11.60;5.37;;;5.80;74.30;;;;;;5009908;28;20033;-77
2021/01/07 00:46:01;;;;;;;10.40;5.00;;;5.70;74.40;;;;;;5012054;28;20034;-77
2021/01/07 00:48:27;;;;;;;10.33;5.60;;;5.70;74.50;;;;;;4993585;28;20502;-77
2021/01/07 00:50:52;;;;;;;11.93;4.93;;;5.70;74.50;;;;;;5003878;28;20044;-77
2021/01/07 00:53:18;;;;;;;9.97;4.53;;;5.70;74.50;;;;;;5009198;28;20041;-77
2021/01/07 00:55:44;;;;;;;15.07;6.07;;;5.70;74.60;;;;;;5007299;28;20050;-77
2021/01/07 00:58:09;;;;;;;10.40;6.03;;;5.70;74.50;;;;;;5003503;28;20095;-77
2021/01/07 01:00:35;;;;;;;9.60;5.07;;;5.70;74.60;;;;;;4992984;28;20057;-77
2021/01/07 01:03:02;;;;;;;10.93;5.33;;;5.70;74.60;;;;;;5008517;28;20037;-77
2021/01/07 01:05:28;;;;;;;11.37;5.67;;;5.80;74.70;;;;;;5009139;28;20113;-77
2021/01/07 01:07:53;;;;;;;10.30;5.93;;;5.80;74.80;;;;;;4993164;28;20034;-77
2021/01/07 01:10:19;;;;;;;11.70;5.93;;;5.80;74.80;;;;;;4976574;28;20121;-78
2021/01/07 01:12:45;;;;;;;12.03;5.40;;;5.80;74.90;;;;;;5010257;28;20132;-77
2021/01/07 01:15:12;;;;;;;9.87;6.00;;;5.80;75.00;;;;;;5011184;28;20030;-77
2021/01/07 01:17:42;;;;;;;10.93;5.17;;;5.70;75.00;;;;;;5008492;28;20555;-77
2021/01/07 01:20:10;;;;;;;8.77;4.90;;;5.80;75.10;;;;;;4992330;28;20104;-77
2021/01/07 01:22:36;;;;;;;10.53;5.40;;;5.80;75.10;;;;;;5008067;28;20480;-77
2021/01/07 01:25:07;;;;;;;10.03;5.20;;;5.80;75.20;;;;;;5010328;28;20044;-77
2021/01/07 01:27:37;;;;;;;10.00;4.83;;;5.80;75.20;;;;;;5005802;28;20038;-77
2021/01/07 01:30:06;;;;;;;12.63;5.60;;;5.80;75.30;;;;;;5016590;28;20034;-77
2021/01/07 01:32:34;;;;;;;9.33;5.17;;;5.70;75.40;;;;;;5007895;28;20093;-77
2021/01/07 01:35:00;;;;;;;11.30;5.80;;;5.70;75.50;;;;;;5006358;28;20054;-77
2021/01/07 01:37:25;;;;;;;11.93;5.67;;;5.60;75.80;;;;;;5026143;28;20487;-77
2021/01/07 01:39:51;;;;;;;12.67;6.17;;;5.60;76.00;;;;;;5000208;28;20037;-77
2021/01/07 01:42:25;;;;;;;11.70;5.30;;;5.60;76.00;;;;;;5009457;28;20746;-77
2021/01/07 01:44:54;;;;;;;11.83;6.67;;;5.70;75.90;;;;;;5004868;28;20097;-77
2021/01/07 01:47:20;;;;;;;17.40;8.17;;;5.70;75.80;;;;;;5018308;28;20087;-77
2021/01/07 01:49:48;;;;;;;12.77;7.50;;;5.30;75.60;;;;;;5007298;28;20129;-77
2021/01/07 01:52:14;;;;;;;12.17;6.37;;;5.70;76.00;;;;;;5006338;28;20080;-78
2021/01/07 01:54:39;;;;;;;11.33;5.43;;;5.70;76.00;;;;;;5004300;28;20026;-78
2021/01/07 01:57:07;;;;;;;13.73;6.13;;;5.70;76.10;;;;;;5008802;28;20030;-78
2021/01/07 01:59:34;;;;;;;16.50;6.93;;;5.70;76.10;;;;;;5002041;28;20022;-77
2021/01/07 02:02:10;;;;;;;13.60;7.07;;;5.70;76.10;;;;;;5008817;28;20036;-77
2021/01/07 02:04:36;;;;;;;11.00;5.57;;;5.70;76.10;;;;;;5008663;28;20022;-77
2021/01/07 02:07:04;;;;;;;14.47;6.80;;;5.80;76.10;;;;;;5009050;28;20139;-77
2021/01/07 02:09:30;;;;;;;15.27;6.97;;;5.70;76.10;;;;;;5007856;28;20100;-77
2021/01/07 02:11:59;;;;;;;14.03;7.40;;;5.80;76.10;;;;;;5008546;28;20539;-77
2021/01/07 02:14:26;;;;;;;18.70;7.40;;;5.80;76.00;;;;;;5010284;28;20164;-77
2021/01/07 02:16:53;;;;;;;13.30;8.00;;;5.80;76.00;;;;;;4991607;28;20060;-76
2021/01/07 02:19:19;;;;;;;14.77;7.33;;;5.80;76.20;;;;;;5009036;28;20030;-77
2021/01/07 02:21:45;;;;;;;14.30;7.33;;;5.80;76.20;;;;;;5010558;28;20038;-78
2021/01/07 02:24:12;;;;;;;14.47;7.13;;;5.80;76.10;;;;;;4997887;28;20069;-77
2021/01/07 02:26:37;;;;;;;15.10;8.20;;;5.90;76.10;;;;;;5009748;28;20044;-77
2021/01/07 02:29:03;;;;;;;14.50;8.10;;;5.90;76.00;;;;;;5008009;28;20026;-77
2021/01/07 02:31:28;;;;;;;17.23;9.13;;;5.90;76.00;;;;;;5008396;28;20461;-77
2021/01/07 02:33:54;;;;;;;16.00;8.27;;;5.80;76.00;;;;;;5006549;28;20506;-77
2021/01/07 02:36:20;;;;;;;14.90;7.73;;;5.90;76.10;;;;;;5007548;28;20061;-77
2021/01/07 02:38:45;;;;;;;19.00;9.10;;;5.90;76.20;;;;;;5008559;28;20038;-77
2021/01/07 02:41:11;;;;;;;16.60;8.93;;;5.90;76.30;;;;;;5009356;28;20072;-77
2021/01/07 02:43:38;;;;;;;13.00;7.53;;;5.90;76.20;;;;;;4989883;28;20045;-77
2021/01/07 02:46:04;;;;;;;16.07;9.63;;;5.90;76.10;;;;;;5009167;28;20083;-77
2021/01/07 02:48:30;;;;;;;15.90;9.07;;;6.00;76.20;;;;;;5006130;28;20483;-77
2021/01/07 02:50:55;;;;;;;14.67;8.53;;;6.00;76.10;;;;;;5005726;28;20033;-78
2021/01/07 02:53:21;;;;;;;15.80;9.07;;;6.00;76.10;;;;;;5007254;28;20038;-78
2021/01/07 02:55:46;;;;;;;13.63;7.87;;;6.10;76.10;;;;;;5010080;28;20473;-77
2021/01/07 02:58:12;;;;;;;13.77;8.30;;;6.10;75.80;;;;;;5024275;28;20033;-77
2021/01/07 03:00:39;;;;;;;15.10;8.27;;;6.10;75.90;;;;;;5008179;28;20038;-77
2021/01/07 03:03:06;;;;;;;15.47;9.20;;;6.10;75.80;;;;;;4991902;28;20156;-77
2021/01/07 03:05:32;;;;;;;16.13;8.47;;;6.10;75.60;;;;;;4990264;28;20424;-77
2021/01/07 03:07:57;;;;;;;14.87;9.23;;;6.10;75.60;;;;;;4992318;28;20480;-77
2021/01/07 03:10:23;;;;;;;17.13;10.60;;;6.10;75.70;;;;;;5006989;28;20080;-77
2021/01/07 03:12:48;;;;;;;14.50;8.27;;;6.10;75.60;;;;;;4992547;28;20096;-77
2021/01/07 03:15:14;;;;;;;13.10;7.67;;;6.10;75.50;;;;;;5008686;28;20431;-77
2021/01/07 03:17:40;;;;;;;14.27;8.17;;;6.20;75.50;;;;;;5008556;28;20026;-77
2021/01/07 03:20:14;;;;;;;15.47;8.60;;;6.10;75.30;;;;;;4990366;28;20034;-77
2021/01/07 03:22:41;;;;;;;15.37;8.93;;;6.20;75.30;;;;;;5002534;28;20060;-78
2021/01/07 03:25:08;;;;;;;13.83;8.10;;;6.20;75.20;;;;;;5006325;28;20041;-77
2021/01/07 03:27:35;;;;;;;11.10;7.63;;;6.30;75.00;;;;;;5008590;28;20515;-78
2021/01/07 03:30:00;;;;;;;13.83;7.80;;;6.30;74.90;;;;;;5006149;28;20026;-77
2021/01/07 03:32:27;;;;;;;14.27;8.57;;;6.30;74.70;;;;;;5006605;28;20414;-77
2021/01/07 03:34:53;;;;;;;12.80;7.40;;;6.30;74.70;;;;;;5000260;28;20041;-77
2021/01/07 03:37:19;;;;;;;15.60;8.10;;;6.40;74.60;;;;;;5008484;28;20368;-78
2021/01/07 03:39:44;;;;;;;13.47;8.30;;;6.40;74.70;;;;;;5006721;28;20037;-77
2021/01/07 03:42:11;;;;;;;14.17;8.10;;;6.90;74.90;;;;;;5007889;28;20033;-77
2021/01/07 03:44:37;;;;;;;12.53;8.03;;;6.40;74.50;;;;;;5006924;28;20113;-78
2021/01/07 03:47:02;;;;;;;13.23;7.73;;;6.40;74.40;;;;;;5006987;28;20045;-77
2021/01/07 03:49:28;;;;;;;11.53;7.33;;;6.30;74.40;;;;;;5012224;28;20026;-77
2021/01/07 03:51:54;;;;;;;11.50;6.57;;;6.20;74.60;;;;;;4994183;28;20045;-77
2021/01/07 03:54:19;;;;;;;13.37;8.13;;;6.10;74.80;;;;;;5010796;28;20587;-77
2021/01/07 03:56:45;;;;;;;12.83;7.27;;;6.10;74.80;;;;;;5012980;28;20041;-77
2021/01/07 03:59:10;;;;;;;11.30;6.90;;;6.10;74.70;;;;;;5012169;28;20053;-78
2021/01/07 04:01:36;;;;;;;10.60;5.83;;;6.10;74.70;;;;;;4994701;28;20052;-77
2021/01/07 04:04:02;;;;;;;12.60;7.50;;;6.00;74.70;;;;;;4998399;28;20041;-77
2021/01/07 04:06:27;;;;;;;11.40;6.27;;;6.00;74.80;;;;;;5012683;28;20038;-77
2021/01/07 04:08:53;;;;;;;13.40;6.80;;;6.00;75.00;;;;;;4994612;28;20054;-77
2021/01/07 04:11:18;;;;;;;16.07;7.63;;;6.00;75.10;;;;;;5010340;28;20108;-77
2021/01/07 04:13:45;;;;;;;12.17;7.13;;;6.00;75.10;;;;;;5012613;28;20048;-77
2021/01/07 04:16:11;;;;;;;14.50;8.80;;;6.00;75.20;;;;;;5011437;28;20060;-77
2021/01/07 04:18:37;;;;;;;13.87;7.37;;;6.00;75.10;;;;;;5015250;28;20379;-77
2021/01/07 04:21:03;;;;;;;11.43;7.10;;;6.00;75.10;;;;;;5010444;28;20038;-77
2021/01/07 04:23:29;;;;;;;13.20;7.20;;;6.00;75.10;;;;;;4995311;28;20113;-77
2021/01/07 04:25:55;;;;;;;13.50;8.10;;;6.00;75.10;;;;;;5011447;28;20431;-77
2021/01/07 04:28:20;;;;;;;11.23;6.40;;;6.00;75.20;;;;;;5008083;28;20551;-78
2021/01/07 04:30:46;;;;;;;12.10;6.60;;;6.00;75.20;;;;;;5010856;28;20132;-78
2021/01/07 04:33:12;;;;;;;14.43;6.63;;;6.00;75.20;;;;;;5017625;28;20133;-77
2021/01/07 04:35:37;;;;;;;13.67;6.20;;;5.90;75.30;;;;;;4994370;28;20054;-77
2021/01/07 04:38:03;;;;;;;14.47;7.70;;;6.00;75.30;;;;;;4997535;28;20496;-77
2021/01/07 04:40:29;;;;;;;13.50;6.97;;;6.10;75.20;;;;;;5009182;28;20026;-77
2021/01/07 04:42:56;;;;;;;13.07;7.80;;;6.10;75.00;;;;;;5010407;28;20057;-77
2021/01/07 04:45:22;;;;;;;16.00;8.43;;;6.20;74.70;;;;;;5010176;28;20124;-77
2021/01/07 04:47:49;;;;;;;14.20;7.13;;;6.30;74.50;;;;;;5010558;28;20217;-77
2021/01/07 04:50:15;;;;;;;17.37;8.80;;;6.30;74.50;;;;;;5000305;28;20476;-77
2021/01/07 04:52:41;;;;;;;14.37;8.27;;;6.20;74.70;;;;;;5003340;28;20535;-77
2021/01/07 04:55:09;;;;;;;15.20;9.03;;;6.20;74.90;;;;;;5009953;28;20038;-77
2021/01/07 04:57:35;;;;;;;15.13;9.83;;;6.10;75.10;;;;;;5010275;28;20045;-78
2021/01/07 05:00:01;;;;;;;18.43;9.27;;;6.00;75.40;;;;;;4993696;28;20068;-77
2021/01/07 05:02:27;;;;;;;18.07;9.87;;;6.00;75.70;;;;;;5007581;28;20445;-77
2021/01/07 05:04:53;;;;;;;16.47;9.60;;;5.90;75.80;;;;;;4998376;28;20035;-78
2021/01/07 05:07:20;;;;;;;18.40;9.63;;;6.00;75.80;;;;;;5009735;28;20025;-77
2021/01/07 05:09:46;;;;;;;20.70;10.83;;;6.10;75.70;;;;;;5001867;28;20027;-77
2021/01/07 05:12:13;;;;;;;19.43;11.30;;;6.10;75.60;;;;;;4995835;28;20453;-77
2021/01/07 05:14:45;;;;;;;18.87;10.70;;;6.00;75.80;;;;;;5005879;28;20034;-77
2021/01/07 05:17:15;;;;;;;19.00;9.83;;;5.90;75.90;;;;;;4993098;28;20026;-77
2021/01/07 05:19:41;;;;;;;21.40;11.77;;;6.00;75.80;;;;;;5010080;28;20037;-78
2021/01/07 05:22:07;;;;;;;17.97;9.87;;;6.10;75.60;;;;;;5008973;28;20079;-77
2021/01/07 05:24:33;;;;;;;21.77;11.07;;;6.00;75.70;;;;;;5009958;28;20061;-77
2021/01/07 05:27:17;;;;;;;19.67;11.30;;;6.00;76.10;;;;;;5004906;28;20065;-77
2021/01/07 05:29:44;;;;;;;18.70;10.27;;;6.00;76.10;;;;;;5010999;28;20068;-77
2021/01/07 05:32:11;;;;;;;19.93;10.73;;;6.00;76.10;;;;;;5006819;28;20038;-77
2021/01/07 05:34:47;;;;;;;18.20;10.40;;;6.00;76.10;;;;;;5008320;28;20037;-77
2021/01/07 05:37:16;;;;;;;17.43;10.83;;;6.10;76.00;;;;;;5010697;28;20088;-78
2021/01/07 05:39:44;;;;;;;17.23;9.83;;;6.10;75.80;;;;;;5009377;28;20036;-78
2021/01/07 05:42:10;;;;;;;16.67;8.90;;;6.20;75.90;;;;;;5009470;28;20033;-77
2021/01/07 05:44:36;;;;;;;19.43;9.40;;;6.20;75.90;;;;;;4992366;28;20244;-77
2021/01/07 05:47:02;;;;;;;16.40;8.47;;;6.20;76.00;;;;;;5010371;28;20042;-77
2021/01/07 05:49:37;;;;;;;14.13;8.70;;;6.20;75.80;;;;;;5008452;28;20439;-77
2021/01/07 05:52:06;;;;;;;17.07;8.37;;;6.30;75.60;;;;;;4997720;28;20084;-78
2021/01/07 05:54:33;;;;;;;16.60;10.00;;;6.30;75.60;;;;;;5012582;28;20038;-77
2021/01/07 05:57:03;;;;;;;16.00;9.37;;;6.30;75.60;;;;;;5011158;28;20037;-77
2021/01/07 05:59:32;;;;;;;16.07;8.63;;;6.40;75.40;;;;;;5010261;28;20029;-78
2021/01/07 06:02:03;;;;;;;14.33;7.40;;;6.40;75.40;;;;;;5016831;28;20042;-77
2021/01/07 06:04:32;;;;;;;16.57;8.97;;;6.40;75.40;;;;;;5006244;28;20034;-78
2021/01/07 06:06:59;;;;;;;13.60;7.87;;;6.40;75.40;;;;;;5010614;28;20040;-77
2021/01/07 06:09:28;;;;;;;13.90;8.27;;;6.40;75.50;;;;;;5003624;28;20033;-78
2021/01/07 06:11:59;;;;;;;14.70;8.20;;;6.40;75.50;;;;;;5008161;28;20136;-76
2021/01/07 06:14:26;;;;;;;14.97;8.93;;;7.20;76.00;;;;;;5009884;28;20026;-78
2021/01/07 06:16:56;;;;;;;15.43;7.47;;;6.40;75.60;;;;;;5010096;28;20117;-77
2021/01/07 06:19:39;;;;;;;14.00;7.93;;;6.40;75.80;;;;;;4995396;28;20030;-77
2021/01/07 06:22:31;;;;;;;15.60;8.67;;;6.30;76.00;;;;;;5008227;28;20045;-78
2021/01/07 06:24:56;;;;;;;12.97;8.23;;;6.30;76.10;;;;;;5006492;28;20061;-77
2021/01/07 06:27:30;;;;;;;14.27;8.13;;;6.30;76.30;;;;;;5007574;28;20042;-77
2021/01/07 06:30:02;;;;;;;12.60;7.80;;;6.30;76.40;;;;;;5009913;28;20117;-78
2021/01/07 06:32:29;;;;;;;12.53;7.57;;;6.20;76.30;;;;;;5008130;28;20038;-77
2021/01/07 06:34:57;;;;;;;14.93;8.57;;;6.20;76.40;;;;;;5012510;28;20088;-78
2021/01/07 06:37:35;;;;;;;13.73;8.63;;;6.10;76.60;;;;;;5012539;28;20052;-77
2021/01/07 06:40:06;;;;;;;17.43;8.70;;;6.10;76.80;;;;;;5011591;28;20081;-77
2021/01/07 06:42:38;;;;;;;16.50;9.20;;;6.20;76.80;;;;;;5014544;28;20128;-77
2021/01/07 06:45:06;;;;;;;14.03;8.70;;;6.20;76.60;;;;;;5011766;28;20102;-77
2021/01/07 06:47:32;;;;;;;16.33;9.90;;;6.30;76.50;;;;;;5004370;28;20031;-78
2021/01/07 06:50:00;;;;;;;13.33;7.63;;;6.40;76.30;;;;;;5004322;28;20046;-78
2021/01/07 06:52:26;;;;;;;15.90;9.43;;;6.40;76.10;;;;;;4998121;28;20084;-77
2021/01/07 06:54:55;;;;;;;15.43;9.40;;;6.50;76.20;;;;;;5006658;28;20026;-77
2021/01/07 06:57:22;;;;;;;16.20;9.93;;;6.50;75.90;;;;;;5010009;28;20030;-78
2021/01/07 06:59:53;;;;;;;16.03;8.90;;;6.60;75.70;;;;;;5007476;28;20034;-78
2021/01/07 07:02:19;;;;;;;13.97;8.23;;;6.60;75.60;;;;;;5010220;28;20432;-78
2021/01/07 07:04:47;;;;;;;14.70;8.47;;;6.60;75.70;;;;;;5009450;28;20030;-77
2021/01/07 07:07:15;;;;;;;15.70;8.27;;;6.60;75.70;;;;;;5008932;28;20082;-78
2021/01/07 07:09:44;;;;;;;15.43;9.10;;;6.50;75.60;;;;;;5008551;28;20452;-78
2021/01/07 07:12:28;;;;;;;13.50;8.27;;;6.60;75.80;;;;;;5008380;28;20049;-78
2021/01/07 07:14:57;;;;;;;14.00;8.43;;;6.50;75.80;;;;;;5012525;28;20037;-78
2021/01/07 07:17:23;;;;;;;12.87;7.63;;;6.50;75.90;;;;;;4993962;28;20063;-78
2021/01/07 07:19:49;;;;;;;14.07;8.57;;;6.40;75.90;;;;;;4993377;28;20111;-78
2021/01/07 07:22:18;;;;;;;14.03;7.43;;;6.40;76.10;;;;;;5013055;28;20097;-77
2021/01/07 07:24:50;;;;;;;12.63;8.17;;;6.40;76.20;;;;;;5015826;28;20438;-78
2021/01/07 07:27:18;;;;;;;28.43;7.70;;;6.40;76.30;;;;;;5013967;28;20188;-77
2021/01/07 07:29:46;;;;;;;13.63;7.33;;;6.40;76.30;;;;;;4987775;28;20521;-78
2021/01/07 07:32:26;;;;;;;13.37;7.77;;;6.50;76.30;;;;;;5006055;28;20062;-78
2021/01/07 07:34:53;;;;;;;16.03;7.60;;;6.50;76.20;;;;;;5009773;28;20086;-75
2021/01/07 07:37:26;;;;;;;14.00;7.20;;;6.40;76.10;;;;;;5013585;28;20463;-77
2021/01/07 07:40:03;;;;;;;13.52;7.82;;;6.40;76.30;;;;;;5012886;28;20101;-77
2021/01/07 07:42:30;;;;;;;13.37;7.13;;;6.40;76.40;;;;;;5016632;28;20058;-77
2021/01/07 07:44:57;;;;;;;13.77;7.83;;;6.40;76.40;;;;;;4999666;28;20700;-78
2021/01/07 07:47:23;;;;;;;12.90;7.10;;;6.40;76.30;;;;;;5015728;28;20033;-78
2021/01/07 07:49:58;;;;;;;11.50;6.57;;;6.50;76.10;;;;;;4994141;28;20475;-78
2021/01/07 07:52:25;;;;;;;13.27;7.33;;;6.50;75.90;;;;;;5006938;28;20065;-78
2021/01/07 07:55:03;;;;;;;11.10;6.77;;;6.50;76.00;;;;;;4996753;28;20819;-79
2021/01/07 07:57:32;;;;;;;12.30;6.40;;;6.50;76.10;;;;;;5002172;28;20492;-79
2021/01/07 08:00:18;;;;;;;12.83;7.77;;;6.50;76.10;;;;;;4995246;28;20140;-79
2021/01/07 08:02:45;;;;;;;13.23;6.33;;;6.50;76.10;;;;;;4999137;28;20070;-79
2021/01/07 08:05:24;;;;;;;10.90;6.90;;;6.50;76.10;;;;;;4996065;28;20322;-79
2021/01/07 08:07:54;;;;;;;12.97;6.83;;;6.50;76.20;;;;;;5010928;28;20033;-79
2021/01/07 08:10:20;;;;;;;12.97;6.80;;;6.60;76.10;;;;;;5008543;28;20391;-75
2021/01/07 08:12:47;;;;;;;11.30;6.13;;;6.60;76.00;;;;;;5030273;28;20041;-76
2021/01/07 08:15:25;;;;;;;11.20;6.20;;;6.60;75.90;;;;;;4995660;28;20583;-78
2021/01/07 08:17:51;;;;;;;11.27;6.00;;;6.70;75.90;;;;;;5005760;28;20050;-79
2021/01/07 08:20:25;;;;;;;14.10;7.37;;;6.50;75.90;;;;;;4984878;28;20044;-77
2021/01/07 08:22:55;;;;;;;11.63;7.10;;;6.50;76.30;;;;;;5005670;28;20029;-77
2021/01/07 08:25:25;;;;;;;11.77;5.93;;;6.50;76.50;;;;;;4996864;28;20038;-74
2021/01/07 08:27:57;;;;;;;12.53;6.87;;;6.40;76.60;;;;;;5003399;28;20043;-79
2021/01/07 08:30:25;;;;;;;12.13;6.40;;;6.30;76.80;;;;;;5008131;28;20026;-75
2021/01/07 08:32:51;;;;;;;11.87;6.70;;;6.30;77.00;;;;;;5007544;28;20039;-75
2021/01/07 08:35:20;;;;;;;11.37;6.67;;;5.60;76.90;;;;;;4969784;28;20046;-76
2021/01/07 08:37:46;;;;;;;12.47;7.63;;;6.30;77.30;;;;;;4983557;28;20062;-75
2021/01/07 08:40:11;;;;;;;12.07;6.60;;;6.30;77.30;;;;;;5006522;28;20084;-78
2021/01/07 08:42:38;;;;;;;11.53;7.13;;;6.40;77.30;;;;;;4973744;28;20046;-79
2021/01/07 08:45:09;;;;;;;12.30;7.83;;;6.40;77.00;;;;;;5000645;28;20646;-75
2021/01/07 08:47:35;;;;;;;12.80;7.80;;;6.30;77.20;;;;;;4999691;28;20023;-74
2021/01/07 08:50:09;;;;;;;12.03;7.77;;;6.30;77.40;;;;;;4983124;28;20044;-73
2021/01/07 08:53:08;;;;;;;12.13;7.27;;;6.20;77.50;;;;;;4999417;28;20167;-73
2021/01/07 08:55:44;;;;;;;14.37;7.53;;;6.30;77.70;;;;;;4979903;28;20045;-74
2021/01/07 08:58:09;;;;;;;14.67;7.63;;;6.30;77.70;;;;;;4995930;28;20042;-74
2021/01/07 09:00:35;;;;;;;11.63;7.07;;;6.40;77.40;;;;;;4985127;28;20034;-74
2021/01/07 09:03:02;;;;;;;13.23;7.80;;;6.40;77.30;;;;;;5006624;28;20057;-74
2021/01/07 09:05:29;;;;;;;12.57;7.47;;;6.50;77.40;;;;;;4988040;28;20042;-73
2021/01/07 09:08:24;;;;;;;12.60;8.00;;;6.50;77.40;;;;;;5019402;28;20027;-75
2021/01/07 09:10:49;;;;;;;14.53;7.67;;;6.50;77.40;;;;;;4993932;28;20038;-75
2021/01/07 09:13:19;;;;;;;12.63;7.63;;;6.50;77.40;;;;;;5007710;28;20495;-75
2021/01/07 09:15:45;;;;;;;16.23;9.03;;;6.50;77.30;;;;;;5005710;28;20048;-73
2021/01/07 09:18:10;;;;;;;16.57;8.80;;;6.60;77.40;;;;;;5000463;28;20134;-74
2021/01/07 09:20:36;;;;;;;12.90;7.33;;;6.60;77.30;;;;;;5000932;28;20474;-74
2021/01/07 09:23:10;;;;;;;12.50;7.87;;;6.60;77.20;;;;;;5005851;28;20041;-75
2021/01/07 09:25:36;;;;;;;;;;;6.60;77.70;;;;;;5007867;28;20061;-76
2021/01/07 09:28:03;;;;;;;12.47;7.73;;;6.70;77.00;;;;;;4998185;28;20351;-76
2021/01/07 09:30:29;;;;;;;12.40;7.80;;;6.70;76.90;;;;;;4982992;28;20089;-75
2021/01/07 09:32:57;;;;;;;11.93;6.90;;;6.70;77.00;;;;;;5005521;28;20073;-75
2021/01/07 09:35:23;;;;;;;12.57;7.07;;;6.70;77.10;;;;;;4999735;28;20137;-78
2021/01/07 09:37:49;;;;;;;14.03;8.03;;;6.80;77.00;;;;;;5003402;28;20042;-75
2021/01/07 09:40:15;;;;;;;11.83;7.37;;;6.80;76.80;;;;;;4988095;28;20068;-78
2021/01/07 09:42:41;;;;;;;12.37;7.20;;;8.50;78.00;;;;;;4994754;28;20033;-75
2021/01/07 09:45:08;;;;;;;13.20;7.17;;;6.70;76.80;;;;;;4988682;28;20037;-76
2021/01/07 09:47:36;;;;;;;11.30;6.67;;;6.70;77.10;;;;;;5004412;28;20040;-74
2021/01/07 09:50:04;;;;;;;10.80;5.43;;;6.70;77.20;;;;;;5006342;28;20026;-76
2021/01/07 09:52:31;;;;;;;10.37;5.77;;;6.70;77.00;;;;;;5007137;28;20037;-70
2021/01/07 09:54:56;;;;;;;9.40;5.70;;;6.80;77.00;;;;;;4999716;28;20040;-71
2021/01/07 09:57:22;;;;;;;9.93;6.07;;;6.80;77.10;;;;;;5005640;28;20435;-74
2021/01/07 09:59:47;;;;;;;10.03;5.33;;;6.80;77.00;;;;;;4971265;28;20062;-75
2021/01/07 10:02:13;;;;;;;10.63;6.07;;;6.80;77.00;;;;;;4969228;28;20030;-76
2021/01/07 10:04:41;;;;;;;11.87;5.90;;;6.80;77.20;;;;;;5002076;28;20034;-78
2021/01/07 10:07:08;;;;;;;9.57;5.80;;;6.90;77.20;;;;;;5003298;28;20026;-75
2021/01/07 10:09:34;;;;;;;10.53;5.80;;;6.80;77.00;;;;;;5000956;28;20030;-75
2021/01/07 10:12:00;;;;;;;10.83;5.90;;;6.90;77.00;;;;;;5006249;28;20037;-75
2021/01/07 10:14:27;;;;;;;9.97;5.67;;;6.90;77.00;;;;;;5005114;28;20060;-80
2021/01/07 10:16:56;;;;;;;12.13;6.53;;;6.90;77.00;;;;;;5003432;28;20057;-78
2021/01/07 10:19:23;;;;;;;10.33;4.97;;;7.00;76.90;;;;;;5002254;28;20022;-72
2021/01/07 10:22:05;;;;;;;9.63;5.47;;;7.00;76.70;;;;;;5006607;28;20042;-74
2021/01/07 10:24:33;;;;;;;10.07;5.13;;;7.00;76.70;;;;;;5002507;28;20491;-78
2021/01/07 10:27:03;;;;;;;8.33;4.57;;;7.00;76.80;;;;;;4987044;28;20037;-74
2021/01/07 10:29:34;;;;;;;8.93;5.13;;;7.00;76.90;;;;;;5001558;28;20072;-76
2021/01/07 10:32:07;;;;;;;8.00;4.30;;;7.10;76.90;;;;;;5006027;28;20072;-76
2021/01/07 10:34:41;;;;;;;8.85;5.40;;;7.10;76.90;;;;;;5001841;28;20038;-76
2021/01/07 10:37:08;;;;;;;9.80;6.33;;;7.20;77.00;;;;;;4982190;28;20139;-74
2021/01/07 10:39:35;;;;;;;9.23;5.03;;;7.20;76.70;;;;;;5001545;28;20194;-77
2021/01/07 10:42:04;;;;;;;9.43;4.97;;;7.10;76.50;;;;;;5001367;28;20034;-78
2021/01/07 10:44:33;;;;;;;8.77;4.83;;;7.10;76.90;;;;;;5017176;28;20023;-75
2021/01/07 10:47:01;;;;;;;8.27;4.40;;;7.20;76.90;;;;;;4988039;28;20387;-79
2021/01/07 10:49:32;;;;;;;8.83;4.87;;;7.20;76.70;;;;;;4997299;28;20036;-76
2021/01/07 10:52:10;;;;;;;15.03;6.20;;;7.30;76.70;;;;;;5002723;28;20046;-76
2021/01/07 10:55:09;;;;;;;10.03;5.30;;;7.30;76.60;;;;;;5005876;28;20030;-79
2021/01/07 10:57:49;;;;;;;8.40;4.77;;;7.30;76.60;;;;;;4995523;28;20290;-75
2021/01/07 11:00:24;;;;;;;9.05;4.82;;;7.20;76.50;;;;;;5017437;28;20061;-76
2021/01/07 11:03:10;;;;;;;9.77;5.20;;;7.30;76.90;;;;;;5002532;28;20030;-74
2021/01/07 11:05:37;;;;;;;7.73;4.80;;;7.20;76.80;;;;;;4997528;28;20034;-76
2021/01/07 11:08:24;;;;;;;9.02;4.35;;;7.20;76.90;;;;;;5001358;28;20036;-76
2021/01/07 11:10:54;;;;;;;8.17;4.20;;;7.30;77.10;;;;;;5004503;28;20029;-75
2021/01/07 11:13:30;;;;;;;7.15;4.30;;;7.30;77.00;;;;;;5007730;28;20657;-72
2021/01/07 11:15:57;;;;;;;7.23;3.67;;;7.30;77.00;;;;;;5002992;28;20053;-71
2021/01/07 11:18:30;;;;;;;8.57;4.00;;;7.30;77.00;;;;;;5000426;28;20108;-75
2021/01/07 11:21:02;;;;;;;7.47;4.22;;;7.30;77.10;;;;;;5000685;28;20034;-76
2021/01/07 11:23:28;;;;;;;7.20;4.30;;;7.30;77.10;;;;;;5002483;28;20139;-74
2021/01/07 11:25:54;;;;;;;9.00;4.22;;;7.30;77.10;;;;;;5000649;28;20033;-73
2021/01/07 11:28:20;;;;;;;8.43;4.23;;;7.30;76.90;;;;;;5006851;28;20057;-72
2021/01/07 11:30:47;;;;;;;8.38;4.15;;;7.30;77.10;;;;;;4996909;28;20061;-72
2021/01/07 11:33:16;;;;;;;8.70;4.03;;;7.30;77.30;;;;;;4986103;28;20129;-73
2021/01/07 11:35:47;;;;;;;7.80;3.57;;;7.20;76.90;;;;;;4999848;28;20053;-69
2021/01/07 11:38:38;;;;;;;6.73;3.27;;;7.30;77.10;;;;;;4998407;28;20030;-73
2021/01/07 11:41:14;;;;;;;6.37;3.07;;;7.30;76.80;;;;;;5002048;28;20030;-74
2021/01/07 11:43:51;;;;;;;7.55;3.55;;;7.30;77.00;;;;;;4993409;28;20061;-79
2021/01/07 11:46:18;;;;;;;6.30;3.30;;;7.30;77.00;;;;;;4991428;28;20590;-75
2021/01/07 11:48:51;;;;;;;6.07;3.37;;;7.40;76.90;;;;;;4982515;28;20113;-76
2021/01/07 11:51:17;;;;;;;7.07;3.40;;;7.40;76.80;;;;;;5004953;28;20030;-75
2021/01/07 11:53:44;;;;;;;6.13;3.40;;;7.40;76.80;;;;;;5002858;28;20436;-75
2021/01/07 11:56:12;;;;;;;5.15;2.65;;;7.50;76.80;;;;;;5005443;28;20105;-79
2021/01/07 11:58:41;;;;;;;5.85;3.08;;;7.50;76.60;;;;;;5004805;28;20148;-83
2021/01/07 12:01:08;;;;;;;6.53;3.08;;;7.50;76.40;;;;;;5008063;28;20034;-77
2021/01/07 12:03:35;;;;;;;7.28;2.90;;;7.50;76.40;;;;;;4998037;28;20044;-81
2021/01/07 12:06:05;;;;;;;6.32;2.78;;;7.60;76.30;;;;;;4999885;28;20056;-80
2021/01/07 12:08:57;;;;;;;6.85;2.90;;;7.70;76.00;;;;;;4998807;28;20030;-77
2021/01/07 12:11:32;;;;;;;5.47;2.50;;;7.70;75.70;;;;;;5003991;28;20597;-78
2021/01/07 12:14:06;;;;;;;6.57;2.90;;;7.60;75.90;;;;;;5003627;28;20138;-77
2021/01/07 12:16:36;;;;;;;6.32;2.85;;;7.60;75.90;;;;;;5002435;28;20062;-74
2021/01/07 12:19:02;;;;;;;5.18;2.55;;;7.60;75.90;;;;;;4999713;28;20026;-78
2021/01/07 12:21:29;;;;;;;5.07;2.30;;;7.60;76.00;;;;;;5001776;28;20025;-77
2021/01/07 12:23:59;;;;;;;4.88;2.42;;;7.50;75.80;;;;;;5011666;28;20029;-76
2021/01/07 12:26:25;;;;;;;4.60;2.20;;;7.40;76.30;;;;;;5003117;28;20069;-76
2021/01/07 12:28:52;;;;;;;4.50;2.25;;;7.40;76.70;;;;;;4990477;28;20049;-76
2021/01/07 12:31:19;;;;;;;4.40;2.08;;;7.50;76.70;;;;;;4990690;28;20448;-76
2021/01/07 12:34:02;;;;;;;3.55;1.80;;;7.50;76.60;;;;;;4990033;28;20133;-72
2021/01/07 12:37:00;;;;;;;4.75;2.80;;;7.60;76.60;;;;;;5007686;28;20081;-78
2021/01/07 12:39:34;;;;;;;3.95;1.88;;;7.60;76.20;;;;;;5014542;28;20503;-80
2021/01/07 12:42:02;;;;;;;3.80;1.75;;;7.60;76.10;;;;;;5011070;28;20030;-80
2021/01/07 12:44:32;;;;;;;3.80;1.88;;;7.60;76.00;;;;;;5013292;28;20046;-78
2021/01/07 12:46:58;;;;;;;3.80;2.00;;;7.60;76.20;;;;;;5010020;28;20097;-81
2021/01/07 12:49:28;;;;;;;3.35;1.60;;;7.70;76.30;;;;;;4994761;28;20038;-79
2021/01/07 12:51:54;;;;;;;3.37;1.87;;;7.80;76.20;;;;;;5010852;28;20058;-83
2021/01/07 12:54:20;;;;;;;4.60;2.38;;;7.80;76.10;;;;;;5008769;28;20042;-80
2021/01/07 12:57:03;;;;;;;4.13;1.90;;;7.80;76.20;;;;;;5007600;28;20053;-80